Pagrindinis puslapis
METAR-TAF:

METAR-TAF

Oro uostai :

La Pasas, Bolivija

platuma: 16-31S, ilguma: 068-11W, Aukštis: 4058 m

Dabartinis oras

Ataskaita buvo paskelbta 31 minutes, ne 05:00 UTC
Vėjas 2 kt nuo kintamojo kryptimis
Temperatūra -1°C
Drėgmė 34%
Slėgis 1035 hPa
Matomumas 10 km arba daugiau

METAR: SLLP 130500Z VRB02KT 9999 NSC M01/M15 Q1035

Laikas: 01:31 (05:31 UTC)

Prognozė

Ataskaita buvo paskelbta 7 valandos ir 31 minutes, ne 22:00 UTC
Prognozė galioja nuo 13 metu 00 UTC su 13 metu 24 UTC
Vėjas 6 kt iš Šiaurės/Šiaurės Rytų
Matomumas 10 km arba daugiau
Mažai debesys ne aukštis 1500 ft
Tapsmas
nuo 13 metu 12 UTC su 13 metu 15 UTC
Vėjas 15 kt iš Vakarų
Laikinai
nuo 13 metu 17 UTC su 13 metu 21 UTC
Vėjas 15 kt iš Vakarų/Šiaurės Vakarų su gūsio iki 25 kt

TAF: SLLP 122200Z 1300/1324 03006KT 9999 FEW015 TX15/1320Z TNM02/1311Z BECMG 1312/1315 28015KT TEMPO 1317/1321 30015G25KT

Orai ataskaitas ir orų prognozės (METAR, TAF).

turimą stotys yra geltonos ir raudonos taškus žemėlapyje.

Perkelti pele per norėdami pamatyti stoties vardą.

Tada spustelėkite, norėdami matyti oro stebėjimo ir prognozės.

Norėdami pakeisti žemėlapį: spustelėkite ant žalios mygtukų su juodo kryžiaus žemyn,; žalią mygtuką su brūkšneliu, jei norite nutolinti; arba žalių rodyklių gretimoms žemėlapius.


METAR-TAF: